sensor_id;sensor_type;location;lat;lon;timestamp;temperature;humidity
16523;DHT22;19889;52.546;13.348;2023-04-23T00:02:19;18.40;77.40
16523;DHT22;19889;52.546;13.348;2023-04-23T00:04:50;18.40;77.50
16523;DHT22;19889;52.546;13.348;2023-04-23T00:07:19;18.40;77.50
16523;DHT22;19889;52.546;13.348;2023-04-23T00:09:46;18.40;77.70
16523;DHT22;19889;52.546;13.348;2023-04-23T00:12:17;18.30;77.70
16523;DHT22;19889;52.546;13.348;2023-04-23T00:14:45;19.80;78.90
16523;DHT22;19889;52.546;13.348;2023-04-23T00:17:13;18.30;78.00
16523;DHT22;19889;52.546;13.348;2023-04-23T00:19:40;18.30;78.00
16523;DHT22;19889;52.546;13.348;2023-04-23T00:22:07;18.30;78.10
16523;DHT22;19889;52.546;13.348;2023-04-23T00:24:34;18.20;78.20
16523;DHT22;19889;52.546;13.348;2023-04-23T00:27:03;18.20;78.30
16523;DHT22;19889;52.546;13.348;2023-04-23T00:29:32;18.20;78.30
16523;DHT22;19889;52.546;13.348;2023-04-23T00:31:59;18.20;78.40
16523;DHT22;19889;52.546;13.348;2023-04-23T00:34:26;18.20;78.50
16523;DHT22;19889;52.546;13.348;2023-04-23T00:36:53;18.20;78.70
16523;DHT22;19889;52.546;13.348;2023-04-23T00:39:20;18.20;78.80
16523;DHT22;19889;52.546;13.348;2023-04-23T00:41:47;18.10;78.90
16523;DHT22;19889;52.546;13.348;2023-04-23T00:44:14;18.20;79.10
16523;DHT22;19889;52.546;13.348;2023-04-23T00:46:43;18.10;79.30
16523;DHT22;19889;52.546;13.348;2023-04-23T00:49:11;18.10;79.50
16523;DHT22;19889;52.546;13.348;2023-04-23T00:51:39;18.10;79.60
16523;DHT22;19889;52.546;13.348;2023-04-23T00:54:06;18.10;79.70
16523;DHT22;19889;52.546;13.348;2023-04-23T00:56:34;18.10;79.80
16523;DHT22;19889;52.546;13.348;2023-04-23T00:59:01;18.10;79.90
16523;DHT22;19889;52.546;13.348;2023-04-23T01:01:28;18.10;80.00
16523;DHT22;19889;52.546;13.348;2023-04-23T01:03:59;18.10;80.10
16523;DHT22;19889;52.546;13.348;2023-04-23T01:06:27;18.10;80.10
16523;DHT22;19889;52.546;13.348;2023-04-23T01:08:56;18.10;80.20
16523;DHT22;19889;52.546;13.348;2023-04-23T01:11:23;18.10;80.40
16523;DHT22;19889;52.546;13.348;2023-04-23T01:13:50;18.10;80.50
16523;DHT22;19889;52.546;13.348;2023-04-23T01:16:18;18.10;80.70
16523;DHT22;19889;52.546;13.348;2023-04-23T01:18:45;18.10;80.80
16523;DHT22;19889;52.546;13.348;2023-04-23T01:21:14;18.10;80.90
16523;DHT22;19889;52.546;13.348;2023-04-23T01:23:44;18.00;80.90
16523;DHT22;19889;52.546;13.348;2023-04-23T01:26:11;18.10;81.10
16523;DHT22;19889;52.546;13.348;2023-04-23T01:28:40;18.00;81.10
16523;DHT22;19889;52.546;13.348;2023-04-23T01:31:08;18.00;81.20
16523;DHT22;19889;52.546;13.348;2023-04-23T01:33:36;18.00;81.30
16523;DHT22;19889;52.546;13.348;2023-04-23T01:36:03;18.00;81.50
16523;DHT22;19889;52.546;13.348;2023-04-23T01:38:32;18.00;81.60
16523;DHT22;19889;52.546;13.348;2023-04-23T01:41:00;18.00;81.70
16523;DHT22;19889;52.546;13.348;2023-04-23T01:43:27;18.00;81.90
16523;DHT22;19889;52.546;13.348;2023-04-23T01:45:54;18.00;82.20
16523;DHT22;19889;52.546;13.348;2023-04-23T01:48:22;18.00;83.50
16523;DHT22;19889;52.546;13.348;2023-04-23T01:50:49;18.00;83.20
16523;DHT22;19889;52.546;13.348;2023-04-23T01:53:17;17.90;83.80
16523;DHT22;19889;52.546;13.348;2023-04-23T01:55:45;17.90;85.40
16523;DHT22;19889;52.546;13.348;2023-04-23T01:58:14;17.90;85.60
16523;DHT22;19889;52.546;13.348;2023-04-23T02:00:41;17.90;86.60
16523;DHT22;19889;52.546;13.348;2023-04-23T02:03:08;17.90;87.70
16523;DHT22;19889;52.546;13.348;2023-04-23T02:05:35;17.90;88.60
16523;DHT22;19889;52.546;13.348;2023-04-23T02:08:03;17.80;89.80
16523;DHT22;19889;52.546;13.348;2023-04-23T02:10:31;17.80;90.30
16523;DHT22;19889;52.546;13.348;2023-04-23T02:12:58;17.80;91.10
16523;DHT22;19889;52.546;13.348;2023-04-23T02:15:27;17.70;91.80
16523;DHT22;19889;52.546;13.348;2023-04-23T02:17:54;17.70;92.50
16523;DHT22;19889;52.546;13.348;2023-04-23T02:20:21;17.70;92.80
16523;DHT22;19889;52.546;13.348;2023-04-23T02:22:49;17.70;93.50
16523;DHT22;19889;52.546;13.348;2023-04-23T02:25:17;17.60;93.90
16523;DHT22;19889;52.546;13.348;2023-04-23T02:27:46;17.50;94.10
16523;DHT22;19889;52.546;13.348;2023-04-23T02:30:13;17.50;94.40
16523;DHT22;19889;52.546;13.348;2023-04-23T02:32:41;17.40;94.70
16523;DHT22;19889;52.546;13.348;2023-04-23T02:35:09;17.40;95.20
16523;DHT22;19889;52.546;13.348;2023-04-23T02:37:37;17.40;95.50
16523;DHT22;19889;52.546;13.348;2023-04-23T02:40:05;17.30;95.70
16523;DHT22;19889;52.546;13.348;2023-04-23T02:42:32;17.30;96.10
16523;DHT22;19889;52.546;13.348;2023-04-23T02:44:59;17.30;96.60
16523;DHT22;19889;52.546;13.348;2023-04-23T02:47:26;17.20;96.70
16523;DHT22;19889;52.546;13.348;2023-04-23T02:49:56;17.20;96.90
16523;DHT22;19889;52.546;13.348;2023-04-23T02:52:23;17.20;97.20
16523;DHT22;19889;52.546;13.348;2023-04-23T02:54:51;17.20;97.40
16523;DHT22;19889;52.546;13.348;2023-04-23T02:57:18;17.20;97.70
16523;DHT22;19889;52.546;13.348;2023-04-23T02:59:45;17.20;97.80
16523;DHT22;19889;52.546;13.348;2023-04-23T03:02:14;17.20;98.00
16523;DHT22;19889;52.546;13.348;2023-04-23T03:04:41;17.20;98.30
16523;DHT22;19889;52.546;13.348;2023-04-23T03:07:09;17.20;98.50
16523;DHT22;19889;52.546;13.348;2023-04-23T03:09:37;17.10;98.70
16523;DHT22;19889;52.546;13.348;2023-04-23T03:12:06;17.20;98.90
16523;DHT22;19889;52.546;13.348;2023-04-23T03:14:33;17.20;99.10
16523;DHT22;19889;52.546;13.348;2023-04-23T03:17:01;17.20;99.40
16523;DHT22;19889;52.546;13.348;2023-04-23T03:19:30;17.20;99.60
16523;DHT22;19889;52.546;13.348;2023-04-23T03:21:57;17.20;99.80
16523;DHT22;19889;52.546;13.348;2023-04-23T03:24:26;17.10;99.90
16523;DHT22;19889;52.546;13.348;2023-04-23T03:26:57;17.20;99.90
16523;DHT22;19889;52.546;13.348;2023-04-23T03:29:24;17.20;99.90
16523;DHT22;19889;52.546;13.348;2023-04-23T03:31:51;17.20;99.90
16523;DHT22;19889;52.546;13.348;2023-04-23T03:34:18;17.20;99.90
16523;DHT22;19889;52.546;13.348;2023-04-23T03:36:45;17.20;99.90
16523;DHT22;19889;52.546;13.348;2023-04-23T03:39:13;17.20;99.90
16523;DHT22;19889;52.546;13.348;2023-04-23T03:41:49;17.20;99.90
16523;DHT22;19889;52.546;13.348;2023-04-23T03:44:19;17.30;99.90
16523;DHT22;19889;52.546;13.348;2023-04-23T03:46:46;17.30;99.90
16523;DHT22;19889;52.546;13.348;2023-04-23T03:49:15;17.30;99.90
16523;DHT22;19889;52.546;13.348;2023-04-23T03:51:42;17.30;99.90
16523;DHT22;19889;52.546;13.348;2023-04-23T03:54:10;17.30;99.90
16523;DHT22;19889;52.546;13.348;2023-04-23T03:56:44;17.30;99.90
16523;DHT22;19889;52.546;13.348;2023-04-23T03:59:26;17.30;99.90
16523;DHT22;19889;52.546;13.348;2023-04-23T04:01:56;17.30;99.90
16523;DHT22;19889;52.546;13.348;2023-04-23T04:04:24;17.30;99.90
16523;DHT22;19889;52.546;13.348;2023-04-23T04:06:54;17.30;99.90
16523;DHT22;19889;52.546;13.348;2023-04-23T04:09:25;17.40;99.90
16523;DHT22;19889;52.546;13.348;2023-04-23T04:11:53;17.30;99.90
16523;DHT22;19889;52.546;13.348;2023-04-23T04:14:20;17.30;99.90
16523;DHT22;19889;52.546;13.348;2023-04-23T04:16:49;17.30;99.90
16523;DHT22;19889;52.546;13.348;2023-04-23T04:19:16;17.30;99.90
16523;DHT22;19889;52.546;13.348;2023-04-23T04:21:43;17.30;99.90
16523;DHT22;19889;52.546;13.348;2023-04-23T04:24:10;17.30;99.90
16523;DHT22;19889;52.546;13.348;2023-04-23T04:26:37;17.30;99.90
16523;DHT22;19889;52.546;13.348;2023-04-23T04:29:04;17.30;99.90
16523;DHT22;19889;52.546;13.348;2023-04-23T04:31:31;17.30;99.90
16523;DHT22;19889;52.546;13.348;2023-04-23T04:33:59;17.30;99.90
16523;DHT22;19889;52.546;13.348;2023-04-23T04:36:26;17.30;99.90
16523;DHT22;19889;52.546;13.348;2023-04-23T04:38:54;17.30;99.90
16523;DHT22;19889;52.546;13.348;2023-04-23T04:41:23;17.20;99.90
16523;DHT22;19889;52.546;13.348;2023-04-23T04:43:50;17.20;99.90
16523;DHT22;19889;52.546;13.348;2023-04-23T04:46:17;17.20;99.90
16523;DHT22;19889;52.546;13.348;2023-04-23T04:48:45;17.20;99.90
16523;DHT22;19889;52.546;13.348;2023-04-23T04:51:13;17.20;99.90
16523;DHT22;19889;52.546;13.348;2023-04-23T04:53:41;17.20;99.90
16523;DHT22;19889;52.546;13.348;2023-04-23T04:56:08;17.20;99.90
16523;DHT22;19889;52.546;13.348;2023-04-23T04:58:35;17.20;99.90
16523;DHT22;19889;52.546;13.348;2023-04-23T05:01:02;17.20;99.90
16523;DHT22;19889;52.546;13.348;2023-04-23T05:03:30;17.20;99.90
16523;DHT22;19889;52.546;13.348;2023-04-23T05:05:57;17.20;99.90
16523;DHT22;19889;52.546;13.348;2023-04-23T05:08:25;17.20;99.90
16523;DHT22;19889;52.546;13.348;2023-04-23T05:10:52;17.10;99.90
16523;DHT22;19889;52.546;13.348;2023-04-23T05:13:19;17.10;99.90
16523;DHT22;19889;52.546;13.348;2023-04-23T05:15:46;17.10;99.90
16523;DHT22;19889;52.546;13.348;2023-04-23T05:18:13;17.10;99.90
16523;DHT22;19889;52.546;13.348;2023-04-23T05:20:40;17.00;99.90
16523;DHT22;19889;52.546;13.348;2023-04-23T05:23:07;17.10;99.90
16523;DHT22;19889;52.546;13.348;2023-04-23T05:25:35;17.10;99.90
16523;DHT22;19889;52.546;13.348;2023-04-23T05:28:02;17.10;99.90
16523;DHT22;19889;52.546;13.348;2023-04-23T05:30:30;17.10;99.90
16523;DHT22;19889;52.546;13.348;2023-04-23T05:32:56;17.20;99.90
16523;DHT22;19889;52.546;13.348;2023-04-23T05:35:23;17.20;99.90
16523;DHT22;19889;52.546;13.348;2023-04-23T05:37:50;17.20;99.90
16523;DHT22;19889;52.546;13.348;2023-04-23T05:40:18;16.90;99.90
16523;DHT22;19889;52.546;13.348;2023-04-23T05:42:46;17.20;99.90
16523;DHT22;19889;52.546;13.348;2023-04-23T05:45:13;17.20;99.90
16523;DHT22;19889;52.546;13.348;2023-04-23T05:47:40;17.30;99.90
16523;DHT22;19889;52.546;13.348;2023-04-23T05:50:07;17.30;99.90
16523;DHT22;19889;52.546;13.348;2023-04-23T05:52:36;17.30;99.90
16523;DHT22;19889;52.546;13.348;2023-04-23T05:55:04;17.30;99.90
16523;DHT22;19889;52.546;13.348;2023-04-23T05:57:32;17.30;99.90
16523;DHT22;19889;52.546;13.348;2023-04-23T06:00:00;17.30;99.90
16523;DHT22;19889;52.546;13.348;2023-04-23T06:02:38;17.30;99.90
16523;DHT22;19889;52.546;13.348;2023-04-23T06:05:05;17.20;99.90
16523;DHT22;19889;52.546;13.348;2023-04-23T06:07:33;17.20;99.90
16523;DHT22;19889;52.546;13.348;2023-04-23T06:10:00;17.20;99.90
16523;DHT22;19889;52.546;13.348;2023-04-23T06:12:27;17.20;99.90
16523;DHT22;19889;52.546;13.348;2023-04-23T06:14:54;17.20;99.90
16523;DHT22;19889;52.546;13.348;2023-04-23T06:17:22;17.20;99.90
16523;DHT22;19889;52.546;13.348;2023-04-23T06:19:50;17.20;99.90
16523;DHT22;19889;52.546;13.348;2023-04-23T06:22:17;17.20;99.90
16523;DHT22;19889;52.546;13.348;2023-04-23T06:24:44;17.20;99.90
16523;DHT22;19889;52.546;13.348;2023-04-23T06:27:12;17.20;99.90
16523;DHT22;19889;52.546;13.348;2023-04-23T06:29:43;17.20;99.90
16523;DHT22;19889;52.546;13.348;2023-04-23T06:32:10;17.20;99.90
16523;DHT22;19889;52.546;13.348;2023-04-23T06:34:38;17.20;99.90
16523;DHT22;19889;52.546;13.348;2023-04-23T06:37:05;17.20;99.90
16523;DHT22;19889;52.546;13.348;2023-04-23T06:39:33;17.30;99.90
16523;DHT22;19889;52.546;13.348;2023-04-23T06:42:00;17.20;99.90
16523;DHT22;19889;52.546;13.348;2023-04-23T06:44:43;17.20;99.90
16523;DHT22;19889;52.546;13.348;2023-04-23T06:47:11;17.30;99.90
16523;DHT22;19889;52.546;13.348;2023-04-23T06:49:40;17.30;99.90
16523;DHT22;19889;52.546;13.348;2023-04-23T06:52:07;17.30;99.90
16523;DHT22;19889;52.546;13.348;2023-04-23T06:54:34;17.30;99.90
16523;DHT22;19889;52.546;13.348;2023-04-23T06:57:01;17.30;99.90
16523;DHT22;19889;52.546;13.348;2023-04-23T06:59:28;17.30;99.90
16523;DHT22;19889;52.546;13.348;2023-04-23T07:01:57;17.20;99.90
16523;DHT22;19889;52.546;13.348;2023-04-23T07:04:24;17.20;99.90
16523;DHT22;19889;52.546;13.348;2023-04-23T07:06:52;17.20;99.90
16523;DHT22;19889;52.546;13.348;2023-04-23T07:09:19;17.20;99.90
16523;DHT22;19889;52.546;13.348;2023-04-23T07:11:47;17.20;99.90
16523;DHT22;19889;52.546;13.348;2023-04-23T07:14:14;17.10;99.90
16523;DHT22;19889;52.546;13.348;2023-04-23T07:16:41;17.20;99.90
16523;DHT22;19889;52.546;13.348;2023-04-23T07:19:08;17.10;99.90
16523;DHT22;19889;52.546;13.348;2023-04-23T07:21:35;17.10;99.90
16523;DHT22;19889;52.546;13.348;2023-04-23T07:24:03;17.20;99.90
16523;DHT22;19889;52.546;13.348;2023-04-23T07:26:33;17.10;99.90
16523;DHT22;19889;52.546;13.348;2023-04-23T07:29:00;17.10;99.90
16523;DHT22;19889;52.546;13.348;2023-04-23T07:31:27;17.00;99.90
16523;DHT22;19889;52.546;13.348;2023-04-23T07:33:55;17.00;99.90
16523;DHT22;19889;52.546;13.348;2023-04-23T07:36:22;16.90;99.90
16523;DHT22;19889;52.546;13.348;2023-04-23T07:38:49;17.00;99.90
16523;DHT22;19889;52.546;13.348;2023-04-23T07:41:18;17.00;99.90
16523;DHT22;19889;52.546;13.348;2023-04-23T07:43:45;17.00;99.90
16523;DHT22;19889;52.546;13.348;2023-04-23T07:46:12;17.00;99.90
16523;DHT22;19889;52.546;13.348;2023-04-23T07:48:39;16.90;99.90
16523;DHT22;19889;52.546;13.348;2023-04-23T07:51:07;16.60;99.90
16523;DHT22;19889;52.546;13.348;2023-04-23T07:53:34;17.00;99.90
16523;DHT22;19889;52.546;13.348;2023-04-23T07:56:01;17.00;99.90
16523;DHT22;19889;52.546;13.348;2023-04-23T07:58:32;17.00;99.90
16523;DHT22;19889;52.546;13.348;2023-04-23T08:01:00;17.00;99.90
16523;DHT22;19889;52.546;13.348;2023-04-23T08:03:27;17.00;99.90
16523;DHT22;19889;52.546;13.348;2023-04-23T08:05:54;17.00;99.90
16523;DHT22;19889;52.546;13.348;2023-04-23T08:08:22;17.00;99.90
16523;DHT22;19889;52.546;13.348;2023-04-23T08:10:49;17.00;99.90
16523;DHT22;19889;52.546;13.348;2023-04-23T08:13:16;17.00;99.90
16523;DHT22;19889;52.546;13.348;2023-04-23T08:15:45;17.00;99.90
16523;DHT22;19889;52.546;13.348;2023-04-23T08:18:13;17.00;99.90
16523;DHT22;19889;52.546;13.348;2023-04-23T08:20:40;16.90;99.90
16523;DHT22;19889;52.546;13.348;2023-04-23T08:23:07;17.00;99.90
16523;DHT22;19889;52.546;13.348;2023-04-23T08:25:34;17.00;99.90
16523;DHT22;19889;52.546;13.348;2023-04-23T08:28:01;16.90;99.90
16523;DHT22;19889;52.546;13.348;2023-04-23T08:30:28;16.90;99.90
16523;DHT22;19889;52.546;13.348;2023-04-23T08:32:57;16.90;99.90
16523;DHT22;19889;52.546;13.348;2023-04-23T08:35:25;16.90;99.90
16523;DHT22;19889;52.546;13.348;2023-04-23T08:37:52;16.90;99.90
16523;DHT22;19889;52.546;13.348;2023-04-23T08:40:19;16.90;99.90
16523;DHT22;19889;52.546;13.348;2023-04-23T08:42:49;17.00;99.90
16523;DHT22;19889;52.546;13.348;2023-04-23T08:45:16;17.00;99.90
16523;DHT22;19889;52.546;13.348;2023-04-23T08:47:44;17.00;99.90
16523;DHT22;19889;52.546;13.348;2023-04-23T08:50:18;17.00;99.90
16523;DHT22;19889;52.546;13.348;2023-04-23T08:52:46;17.00;99.90
16523;DHT22;19889;52.546;13.348;2023-04-23T08:55:15;15.60;99.90
16523;DHT22;19889;52.546;13.348;2023-04-23T08:57:45;17.10;99.90
16523;DHT22;19889;52.546;13.348;2023-04-23T09:00:14;17.10;99.90
16523;DHT22;19889;52.546;13.348;2023-04-23T09:02:42;17.10;99.90
16523;DHT22;19889;52.546;13.348;2023-04-23T09:05:10;17.00;99.90
16523;DHT22;19889;52.546;13.348;2023-04-23T09:07:38;17.10;99.90
16523;DHT22;19889;52.546;13.348;2023-04-23T09:10:07;17.10;99.90
16523;DHT22;19889;52.546;13.348;2023-04-23T09:12:37;17.00;99.90
16523;DHT22;19889;52.546;13.348;2023-04-23T09:15:05;17.00;99.90
16523;DHT22;19889;52.546;13.348;2023-04-23T09:17:37;17.00;99.90
16523;DHT22;19889;52.546;13.348;2023-04-23T09:20:06;16.90;99.90
16523;DHT22;19889;52.546;13.348;2023-04-23T09:22:39;16.90;99.90
16523;DHT22;19889;52.546;13.348;2023-04-23T09:25:07;16.90;99.90
16523;DHT22;19889;52.546;13.348;2023-04-23T09:27:35;16.90;99.90
16523;DHT22;19889;52.546;13.348;2023-04-23T09:30:03;16.90;99.90
16523;DHT22;19889;52.546;13.348;2023-04-23T09:32:33;16.90;99.90
16523;DHT22;19889;52.546;13.348;2023-04-23T09:35:02;16.90;99.90
16523;DHT22;19889;52.546;13.348;2023-04-23T09:37:30;16.80;99.90
16523;DHT22;19889;52.546;13.348;2023-04-23T09:40:03;16.70;99.90
16523;DHT22;19889;52.546;13.348;2023-04-23T09:42:33;16.70;99.90
16523;DHT22;19889;52.546;13.348;2023-04-23T09:45:04;16.60;99.90
16523;DHT22;19889;52.546;13.348;2023-04-23T09:47:31;16.60;99.90
16523;DHT22;19889;52.546;13.348;2023-04-23T09:50:00;16.60;99.90
16523;DHT22;19889;52.546;13.348;2023-04-23T09:52:27;16.50;99.90
16523;DHT22;19889;52.546;13.348;2023-04-23T09:54:56;16.50;99.90
16523;DHT22;19889;52.546;13.348;2023-04-23T09:57:25;16.40;99.90
16523;DHT22;19889;52.546;13.348;2023-04-23T09:59:53;16.40;99.90
16523;DHT22;19889;52.546;13.348;2023-04-23T10:02:26;16.40;99.90
16523;DHT22;19889;52.546;13.348;2023-04-23T10:04:53;16.40;99.90
16523;DHT22;19889;52.546;13.348;2023-04-23T10:07:21;16.50;99.90
16523;DHT22;19889;52.546;13.348;2023-04-23T10:09:49;16.50;99.90
16523;DHT22;19889;52.546;13.348;2023-04-23T10:12:17;16.50;99.90
16523;DHT22;19889;52.546;13.348;2023-04-23T10:14:47;16.40;99.90
16523;DHT22;19889;52.546;13.348;2023-04-23T10:17:18;16.50;99.90
16523;DHT22;19889;52.546;13.348;2023-04-23T10:19:45;16.50;99.90
16523;DHT22;19889;52.546;13.348;2023-04-23T10:22:14;16.50;99.90
16523;DHT22;19889;52.546;13.348;2023-04-23T10:24:44;16.50;99.90
16523;DHT22;19889;52.546;13.348;2023-04-23T10:27:13;16.50;99.90
16523;DHT22;19889;52.546;13.348;2023-04-23T10:29:41;16.50;99.90
16523;DHT22;19889;52.546;13.348;2023-04-23T10:32:11;16.50;99.90
16523;DHT22;19889;52.546;13.348;2023-04-23T10:34:38;16.50;99.90
16523;DHT22;19889;52.546;13.348;2023-04-23T10:37:06;16.50;99.90
16523;DHT22;19889;52.546;13.348;2023-04-23T10:39:34;16.50;99.90
16523;DHT22;19889;52.546;13.348;2023-04-23T10:42:02;16.50;99.90
16523;DHT22;19889;52.546;13.348;2023-04-23T10:44:34;16.50;99.90
16523;DHT22;19889;52.546;13.348;2023-04-23T10:47:02;16.50;99.90
16523;DHT22;19889;52.546;13.348;2023-04-23T10:49:32;16.60;99.90
16523;DHT22;19889;52.546;13.348;2023-04-23T10:52:00;16.60;99.90
16523;DHT22;19889;52.546;13.348;2023-04-23T10:54:28;16.70;99.90
16523;DHT22;19889;52.546;13.348;2023-04-23T10:56:58;16.70;99.90
16523;DHT22;19889;52.546;13.348;2023-04-23T10:59:26;16.80;99.90
16523;DHT22;19889;52.546;13.348;2023-04-23T11:01:56;16.80;99.90
16523;DHT22;19889;52.546;13.348;2023-04-23T11:04:25;16.90;99.90
16523;DHT22;19889;52.546;13.348;2023-04-23T11:06:56;16.90;99.90
16523;DHT22;19889;52.546;13.348;2023-04-23T11:09:35;16.90;99.90
16523;DHT22;19889;52.546;13.348;2023-04-23T11:12:06;17.00;99.90
16523;DHT22;19889;52.546;13.348;2023-04-23T11:14:34;16.90;99.90
16523;DHT22;19889;52.546;13.348;2023-04-23T11:17:02;16.90;99.90
16523;DHT22;19889;52.546;13.348;2023-04-23T11:19:30;17.00;99.90
16523;DHT22;19889;52.546;13.348;2023-04-23T11:21:59;17.00;99.90
16523;DHT22;19889;52.546;13.348;2023-04-23T11:24:28;17.00;99.90
16523;DHT22;19889;52.546;13.348;2023-04-23T11:26:55;17.00;99.90
16523;DHT22;19889;52.546;13.348;2023-04-23T11:29:24;17.00;99.90
16523;DHT22;19889;52.546;13.348;2023-04-23T11:31:52;17.00;99.90
16523;DHT22;19889;52.546;13.348;2023-04-23T11:34:20;17.00;99.90
16523;DHT22;19889;52.546;13.348;2023-04-23T11:36:50;17.00;99.90
16523;DHT22;19889;52.546;13.348;2023-04-23T11:39:19;17.10;99.90
16523;DHT22;19889;52.546;13.348;2023-04-23T11:41:46;17.10;99.90
16523;DHT22;19889;52.546;13.348;2023-04-23T11:44:14;17.10;99.90
16523;DHT22;19889;52.546;13.348;2023-04-23T11:46:41;17.10;99.90
16523;DHT22;19889;52.546;13.348;2023-04-23T11:49:09;17.10;99.90
16523;DHT22;19889;52.546;13.348;2023-04-23T11:51:41;17.10;99.90
16523;DHT22;19889;52.546;13.348;2023-04-23T11:54:11;17.20;99.90
16523;DHT22;19889;52.546;13.348;2023-04-23T11:56:40;17.20;99.90
16523;DHT22;19889;52.546;13.348;2023-04-23T11:59:08;17.20;99.90
16523;DHT22;19889;52.546;13.348;2023-04-23T12:01:42;17.20;99.90
16523;DHT22;19889;52.546;13.348;2023-04-23T12:04:14;17.20;99.90
16523;DHT22;19889;52.546;13.348;2023-04-23T12:06:43;17.20;99.90
16523;DHT22;19889;52.546;13.348;2023-04-23T12:09:11;18.40;99.90
16523;DHT22;19889;52.546;13.348;2023-04-23T12:11:40;17.30;99.90
16523;DHT22;19889;52.546;13.348;2023-04-23T12:14:08;17.30;99.90
16523;DHT22;19889;52.546;13.348;2023-04-23T12:16:38;17.40;99.90
16523;DHT22;19889;52.546;13.348;2023-04-23T12:19:12;17.40;99.90
16523;DHT22;19889;52.546;13.348;2023-04-23T12:21:51;17.30;99.90
16523;DHT22;19889;52.546;13.348;2023-04-23T12:24:20;17.40;99.90
16523;DHT22;19889;52.546;13.348;2023-04-23T12:26:54;17.40;99.90
16523;DHT22;19889;52.546;13.348;2023-04-23T12:29:21;17.40;99.90
16523;DHT22;19889;52.546;13.348;2023-04-23T12:31:49;17.40;99.90
16523;DHT22;19889;52.546;13.348;2023-04-23T12:34:18;17.50;99.90
16523;DHT22;19889;52.546;13.348;2023-04-23T12:36:48;17.50;99.90
16523;DHT22;19889;52.546;13.348;2023-04-23T12:39:19;17.60;99.90
16523;DHT22;19889;52.546;13.348;2023-04-23T12:41:48;17.60;99.90
16523;DHT22;19889;52.546;13.348;2023-04-23T12:44:17;17.70;99.90
16523;DHT22;19889;52.546;13.348;2023-04-23T12:46:44;17.70;99.90
16523;DHT22;19889;52.546;13.348;2023-04-23T12:49:10;17.70;99.90
16523;DHT22;19889;52.546;13.348;2023-04-23T12:51:37;17.80;99.90
16523;DHT22;19889;52.546;13.348;2023-04-23T12:54:04;17.90;99.90
16523;DHT22;19889;52.546;13.348;2023-04-23T12:56:32;17.90;99.90
16523;DHT22;19889;52.546;13.348;2023-04-23T12:59:00;17.80;99.90
16523;DHT22;19889;52.546;13.348;2023-04-23T13:01:31;17.80;99.90
16523;DHT22;19889;52.546;13.348;2023-04-23T13:03:58;17.80;99.90
16523;DHT22;19889;52.546;13.348;2023-04-23T13:06:25;17.90;99.90
16523;DHT22;19889;52.546;13.348;2023-04-23T13:08:54;17.80;99.90
16523;DHT22;19889;52.546;13.348;2023-04-23T13:11:21;17.80;99.90
16523;DHT22;19889;52.546;13.348;2023-04-23T13:13:48;17.80;99.90
16523;DHT22;19889;52.546;13.348;2023-04-23T13:16:16;17.80;99.90
16523;DHT22;19889;52.546;13.348;2023-04-23T13:18:45;17.80;99.90
16523;DHT22;19889;52.546;13.348;2023-04-23T13:21:12;17.80;99.90
16523;DHT22;19889;52.546;13.348;2023-04-23T13:23:39;17.80;99.90
16523;DHT22;19889;52.546;13.348;2023-04-23T13:26:06;17.90;99.90
16523;DHT22;19889;52.546;13.348;2023-04-23T13:28:33;17.90;99.90
16523;DHT22;19889;52.546;13.348;2023-04-23T13:31:01;17.80;99.90
16523;DHT22;19889;52.546;13.348;2023-04-23T13:33:28;17.80;99.90
16523;DHT22;19889;52.546;13.348;2023-04-23T13:35:57;17.90;99.90
16523;DHT22;19889;52.546;13.348;2023-04-23T13:38:24;17.90;99.90
16523;DHT22;19889;52.546;13.348;2023-04-23T13:40:51;17.90;99.90
16523;DHT22;19889;52.546;13.348;2023-04-23T13:43:19;17.90;99.90
16523;DHT22;19889;52.546;13.348;2023-04-23T13:45:46;17.90;99.90
16523;DHT22;19889;52.546;13.348;2023-04-23T13:48:13;18.00;99.90
16523;DHT22;19889;52.546;13.348;2023-04-23T13:50:41;18.00;99.90
16523;DHT22;19889;52.546;13.348;2023-04-23T13:53:11;17.90;99.90
16523;DHT22;19889;52.546;13.348;2023-04-23T13:55:38;18.00;99.90
16523;DHT22;19889;52.546;13.348;2023-04-23T13:58:05;18.00;99.90
16523;DHT22;19889;52.546;13.348;2023-04-23T14:00:33;18.00;99.90
16523;DHT22;19889;52.546;13.348;2023-04-23T14:02:59;18.00;99.90
16523;DHT22;19889;52.546;13.348;2023-04-23T14:05:26;18.00;99.90
16523;DHT22;19889;52.546;13.348;2023-04-23T14:07:53;18.00;99.90
16523;DHT22;19889;52.546;13.348;2023-04-23T14:10:22;18.00;99.90
16523;DHT22;19889;52.546;13.348;2023-04-23T14:12:50;18.00;99.90
16523;DHT22;19889;52.546;13.348;2023-04-23T14:15:17;18.00;99.90
16523;DHT22;19889;52.546;13.348;2023-04-23T14:17:44;18.00;99.90
16523;DHT22;19889;52.546;13.348;2023-04-23T14:20:12;18.00;99.90
16523;DHT22;19889;52.546;13.348;2023-04-23T14:22:40;17.90;99.90
16523;DHT22;19889;52.546;13.348;2023-04-23T14:25:09;17.90;99.90
16523;DHT22;19889;52.546;13.348;2023-04-23T14:27:45;18.00;99.90
16523;DHT22;19889;52.546;13.348;2023-04-23T14:30:17;18.00;99.90
16523;DHT22;19889;52.546;13.348;2023-04-23T14:32:44;18.00;99.90
16523;DHT22;19889;52.546;13.348;2023-04-23T14:35:12;18.00;99.90
16523;DHT22;19889;52.546;13.348;2023-04-23T14:37:39;18.00;99.90
16523;DHT22;19889;52.546;13.348;2023-04-23T14:40:10;18.00;99.90
16523;DHT22;19889;52.546;13.348;2023-04-23T14:42:41;18.00;99.90
16523;DHT22;19889;52.546;13.348;2023-04-23T14:45:10;18.00;99.90
16523;DHT22;19889;52.546;13.348;2023-04-23T14:47:38;18.00;99.90
16523;DHT22;19889;52.546;13.348;2023-04-23T14:50:09;18.00;99.90
16523;DHT22;19889;52.546;13.348;2023-04-23T14:52:36;18.00;99.90
16523;DHT22;19889;52.546;13.348;2023-04-23T14:55:04;18.00;99.90
16523;DHT22;19889;52.546;13.348;2023-04-23T14:57:31;18.00;99.90
16523;DHT22;19889;52.546;13.348;2023-04-23T14:59:59;18.00;99.90
16523;DHT22;19889;52.546;13.348;2023-04-23T15:02:26;18.00;99.90
16523;DHT22;19889;52.546;13.348;2023-04-23T15:04:53;18.00;99.90
16523;DHT22;19889;52.546;13.348;2023-04-23T15:07:20;18.00;99.90
16523;DHT22;19889;52.546;13.348;2023-04-23T15:09:47;18.10;99.90
16523;DHT22;19889;52.546;13.348;2023-04-23T15:12:40;18.10;99.90
16523;DHT22;19889;52.546;13.348;2023-04-23T15:15:14;18.10;99.90
16523;DHT22;19889;52.546;13.348;2023-04-23T15:17:41;18.20;99.90
16523;DHT22;19889;52.546;13.348;2023-04-23T15:20:09;18.10;99.90
16523;DHT22;19889;52.546;13.348;2023-04-23T15:22:36;18.20;99.90